Time;durP1;ratioP1;P1;durP2;ratioP2;P2;SDS_P1;SDS_P2;PMS_P1;PMS_P2;Temp;Humidity;BMP_temperature;BMP_pressure;BME280_temperature;BME280_humidity;BME280_pressure;Samples;Min_cycle;Max_cycle;Signal;HPM_P1;HPM_P2
2022/10/22 00:00:27;;;;;;;12.13;6.93;;;;;;;12.13;100.00;100128.28;5239602;28;20052;-73
2022/10/22 00:02:57;;;;;;;9.95;5.45;;;;;;;12.05;100.00;100125.19;5240532;28;20031;-73
2022/10/22 00:05:27;;;;;;;7.20;5.13;;;;;;;12.03;100.00;100131.41;5240916;28;20039;-73
2022/10/22 00:07:58;;;;;;;9.55;5.15;;;;;;;11.98;100.00;100138.66;5238986;28;20075;-72
2022/10/22 00:10:28;;;;;;;10.48;5.50;;;;;;;12.01;100.00;100136.75;5239896;28;20036;-73
2022/10/22 00:12:59;;;;;;;7.28;4.95;;;;;;;12.04;100.00;100151.44;5239899;28;20021;-73
2022/10/22 00:15:29;;;;;;;9.02;5.28;;;;;;;11.86;100.00;100168.03;5240228;28;20446;-73
2022/10/22 00:17:59;;;;;;;10.77;5.45;;;;;;;11.83;100.00;100169.06;5225608;28;20036;-73
2022/10/22 00:20:30;;;;;;;10.05;5.70;;;;;;;11.82;100.00;100162.09;5243676;28;20098;-73
2022/10/22 00:23:00;;;;;;;9.05;5.68;;;;;;;11.81;100.00;100168.25;5229792;28;20028;-73
2022/10/22 00:25:34;;;;;;;11.38;5.57;;;;;;;11.85;100.00;100166.34;5241563;28;20059;-73
2022/10/22 00:28:04;;;;;;;8.73;5.75;;;;;;;11.85;100.00;100161.09;5224590;28;20029;-73
2022/10/22 00:30:34;;;;;;;11.25;6.00;;;;;;;11.82;100.00;100159.47;5242821;28;20619;-73
2022/10/22 00:33:05;;;;;;;9.55;5.70;;;;;;;11.81;100.00;100165.63;5242595;28;20050;-73
2022/10/22 00:35:36;;;;;;;7.50;5.07;;;;;;;11.80;100.00;100152.63;5243249;28;20040;-73
2022/10/22 00:38:06;;;;;;;15.20;7.07;;;;;;;11.91;100.00;100151.19;5242769;28;20742;-72
2022/10/22 00:40:36;;;;;;;9.60;5.60;;;;;;;11.93;100.00;100157.19;5242714;28;20511;-73
2022/10/22 00:43:16;;;;;;;8.55;5.50;;;;;;;11.88;100.00;100167.06;5243223;28;20020;-73
2022/10/22 00:45:46;;;;;;;9.18;5.60;;;;;;;11.87;100.00;100162.75;5240045;28;20040;-72
2022/10/22 00:48:30;;;;;;;8.23;5.47;;;;;;;11.88;100.00;100148.72;5224478;28;20034;-73
2022/10/22 00:51:05;;;;;;;11.60;6.25;;;;;;;11.94;100.00;100144.97;5242691;28;20020;-73
2022/10/22 00:53:40;;;;;;;10.82;6.65;;;;;;;12.05;100.00;100145.28;5255938;22;20109;-78
2022/10/22 00:56:11;;;;;;;9.40;5.45;;;;;;;12.06;100.00;100147.84;5220771;28;20033;-77
2022/10/22 00:58:46;;;;;;;12.80;6.32;;;;;;;12.02;100.00;100148.91;5221411;28;20066;-77
2022/10/22 01:01:20;;;;;;;10.02;5.68;;;;;;;11.97;100.00;100166.59;5221726;28;20025;-78
2022/10/22 01:03:51;;;;;;;8.20;5.53;;;;;;;11.94;100.00;100172.00;5222245;28;20033;-78
2022/10/22 01:06:27;;;;;;;7.38;5.20;;;;;;;11.97;100.00;100153.50;5220410;28;20074;-77
2022/10/22 01:09:19;;;;;;;9.30;5.53;;;;;;;11.98;100.00;100136.03;5221862;28;20044;-77
2022/10/22 01:12:07;;;;;;;8.55;5.60;;;;;;;12.00;100.00;100139.44;5219742;28;20104;-78
2022/10/22 01:14:55;;;;;;;8.85;5.72;;;;;;;11.94;100.00;100148.41;5221800;28;20060;-78
2022/10/22 01:17:46;;;;;;;7.53;5.22;;;;;;;11.92;100.00;100145.03;5219319;28;20075;-78
2022/10/22 01:20:41;;;;;;;7.68;5.25;;;;;;;11.98;100.00;100139.50;5218698;28;20103;-77
2022/10/22 01:24:01;;;;;;;7.75;5.60;;;;;;;11.99;100.00;100138.56;5199209;28;20605;-78
2022/10/22 01:26:53;;;;;;;8.32;5.82;;;;;;;12.01;100.00;100128.88;5219966;28;20036;-78
2022/10/22 01:29:37;;;;;;;9.25;6.57;;;;;;;12.10;100.00;100140.69;5219801;28;20020;-77
2022/10/22 01:32:12;;;;;;;7.85;5.78;;;;;;;12.07;100.00;100140.81;5221227;28;20033;-78
2022/10/22 01:34:48;;;;;;;10.10;5.78;;;;;;;12.15;100.00;100154.41;5218417;28;20490;-77
2022/10/22 01:37:22;;;;;;;8.65;5.88;;;;;;;12.00;100.00;100150.78;5220335;28;20032;-78
2022/10/22 01:39:53;;;;;;;7.22;5.25;;;;;;;11.99;100.00;100141.19;5221001;28;20682;-78
2022/10/22 01:42:23;;;;;;;7.57;5.68;;;;;;;11.97;100.00;100140.41;5221030;28;20040;-77
2022/10/22 01:44:54;;;;;;;8.77;5.80;;;;;;;11.96;100.00;100136.09;5202614;28;20144;-78
2022/10/22 01:47:39;;;;;;;7.25;5.10;;;;;;;11.96;100.00;100138.72;5220580;28;20387;-78
2022/10/22 01:50:34;;;;;;;8.90;4.82;;;;;;;11.93;100.00;100146.72;5220146;28;20051;-78
2022/10/22 01:53:31;;;;;;;7.63;5.65;;;;;;;12.00;100.00;100145.53;5220470;28;20036;-78
2022/10/22 01:56:17;;;;;;;8.88;6.65;;;;;;;12.08;100.00;100140.75;5219968;28;20636;-78
2022/10/22 01:59:06;;;;;;;11.13;6.95;;;;;;;12.13;100.00;100146.59;5220615;28;20067;-77
2022/10/22 02:01:51;;;;;;;10.38;6.35;;;;;;;12.06;100.00;100149.59;5201791;28;20139;-77
2022/10/22 02:04:42;;;;;;;9.13;6.55;;;;;;;12.08;100.00;100146.00;5216897;28;20028;-77
2022/10/22 02:07:16;;;;;;;8.00;5.93;;;;;;;12.03;100.00;100145.38;5218114;28;20037;-79
2022/10/22 02:09:50;;;;;;;7.60;6.20;;;;;;;12.04;100.00;100133.13;5221178;28;20037;-78
2022/10/22 02:12:23;;;;;;;10.35;6.35;;;;;;;11.99;100.00;100138.56;5218344;28;20364;-77
2022/10/22 02:14:56;;;;;;;8.90;6.18;;;;;;;12.03;100.00;100142.75;5202755;28;20063;-78
2022/10/22 02:17:30;;;;;;;7.75;5.18;;;;;;;11.95;100.00;100137.03;5219316;28;20078;-78
2022/10/22 02:20:08;;;;;;;8.75;6.43;;;;;;;11.94;100.00;100140.56;5219842;28;20110;-77
2022/10/22 02:22:39;;;;;;;7.20;5.40;;;;;;;12.03;100.00;100140.13;5218053;28;20017;-77
2022/10/22 02:25:10;;;;;;;10.68;6.80;;;;;;;11.98;100.00;100131.63;5202568;28;20379;-78
2022/10/22 02:27:48;;;;;;;10.60;6.28;;;;;;;12.04;100.00;100139.22;5219745;28;20040;-78
2022/10/22 02:30:20;;;;;;;11.70;6.32;;;;;;;12.11;100.00;100132.75;5219487;28;20029;-78
2022/10/22 02:33:04;;;;;;;8.90;5.90;;;;;;;12.13;100.00;100128.28;5219658;28;20025;-78
2022/10/22 02:35:36;;;;;;;8.82;5.70;;;;;;;12.07;100.00;100125.09;5219602;28;20479;-78
2022/10/22 02:38:08;;;;;;;7.88;5.55;;;;;;;12.04;100.00;100126.13;5200737;28;20037;-78
2022/10/22 02:40:38;;;;;;;6.85;5.38;;;;;;;12.03;100.00;100128.78;5218754;28;20037;-77
2022/10/22 02:43:09;;;;;;;10.48;5.82;;;;;;;11.96;100.00;100133.47;5219956;28;20402;-78
2022/10/22 02:45:39;;;;;;;8.02;5.95;;;;;;;11.94;100.00;100144.97;5201886;28;20025;-78
2022/10/22 02:48:09;;;;;;;9.52;5.70;;;;;;;11.91;100.00;100140.72;5219393;28;20036;-77
2022/10/22 02:50:40;;;;;;;7.00;5.72;;;;;;;11.90;100.00;100139.03;5219864;28;20471;-78
2022/10/22 02:53:10;;;;;;;7.55;5.40;;;;;;;11.85;100.00;100141.03;5219528;28;20041;-78
2022/10/22 02:55:41;;;;;;;6.75;5.47;;;;;;;11.83;100.00;100140.25;5219990;28;20044;-78
2022/10/22 02:58:12;;;;;;;8.50;5.30;;;;;;;11.82;100.00;100150.78;5219592;28;20088;-77
2022/10/22 03:00:43;;;;;;;10.48;5.60;;;;;;;11.84;100.00;100149.78;5218673;28;20207;-77
2022/10/22 03:03:13;;;;;;;9.10;6.03;;;;;;;11.85;100.00;100151.50;5219464;28;20021;-78
2022/10/22 03:05:43;;;;;;;11.93;6.68;;;;;;;11.86;100.00;100147.09;5201440;28;20039;-77
2022/10/22 03:08:13;;;;;;;9.30;6.35;;;;;;;11.86;100.00;100152.31;5217703;28;20033;-78
2022/10/22 03:10:44;;;;;;;11.10;6.70;;;;;;;11.87;100.00;100164.50;5217646;28;20060;-77
2022/10/22 03:13:15;;;;;;;9.70;6.35;;;;;;;11.88;100.00;100167.06;5199837;28;20037;-77
2022/10/22 03:15:48;;;;;;;9.82;6.00;;;;;;;11.92;100.00;100162.53;5219080;28;20028;-79
2022/10/22 03:18:18;;;;;;;8.52;5.80;;;;;;;11.92;100.00;100158.13;5218018;28;20025;-77
2022/10/22 03:20:49;;;;;;;8.00;5.78;;;;;;;11.88;100.00;100156.56;5219394;28;20536;-78
2022/10/22 03:23:19;;;;;;;10.55;7.45;;;;;;;11.64;100.00;100159.50;5201554;28;20072;-77
2022/10/22 03:25:50;;;;;;;10.40;8.10;;;;;;;11.59;100.00;100154.47;5219288;28;20464;-77
2022/10/22 03:28:21;;;;;;;8.35;7.15;;;;;;;11.59;100.00;100162.31;5219292;28;20054;-77
2022/10/22 03:30:52;;;;;;;7.43;6.28;;;;;;;11.65;100.00;100163.81;5218512;28;20079;-77
2022/10/22 03:33:22;;;;;;;12.75;6.70;;;;;;;11.65;100.00;100174.28;5218961;28;20025;-77
2022/10/22 03:35:52;;;;;;;6.47;5.38;;;;;;;11.66;100.00;100182.06;5219157;28;20535;-78
2022/10/22 03:38:23;;;;;;;8.20;5.72;;;;;;;11.64;100.00;100177.81;5217800;28;20107;-77
2022/10/22 03:40:54;;;;;;;7.00;5.50;;;;;;;11.68;100.00;100185.47;5219240;28;20324;-78
2022/10/22 03:43:24;;;;;;;9.68;5.55;;;;;;;11.66;100.00;100192.53;5217870;28;20021;-78
2022/10/22 03:45:55;;;;;;;8.48;5.28;;;;;;;11.72;100.00;100192.25;5215674;28;20029;-77
2022/10/22 03:48:25;;;;;;;10.15;6.50;;;;;;;11.77;100.00;100187.66;5216362;28;20025;-78
2022/10/22 03:50:55;;;;;;;7.82;6.05;;;;;;;11.77;100.00;100192.88;5219948;28;20140;-77
2022/10/22 03:53:26;;;;;;;20.95;11.93;;;;;;;11.72;100.00;100197.50;5223220;28;20120;-78
2022/10/22 03:55:56;;;;;;;15.57;9.57;;;;;;;11.70;100.00;100195.84;5205703;28;20511;-77
2022/10/22 03:58:26;;;;;;;12.20;7.25;;;;;;;11.71;100.00;100200.16;5204885;28;20032;-77
2022/10/22 04:00:56;;;;;;;8.75;6.70;;;;;;;11.71;100.00;100200.16;5223009;28;20118;-78
2022/10/22 04:03:27;;;;;;;12.80;5.88;;;;;;;11.69;100.00;100200.25;5222844;28;20040;-77
2022/10/22 04:06:05;;;;;;;8.10;5.65;;;;;;;11.66;100.00;100210.00;5223381;28;20055;-77
2022/10/22 04:08:38;;;;;;;12.82;5.80;;;;;;;11.66;100.00;100207.38;5222566;28;20095;-78
2022/10/22 04:11:09;;;;;;;7.57;5.57;;;;;;;11.65;100.00;100206.53;5218822;28;20036;-79
2022/10/22 04:13:40;;;;;;;7.60;5.68;;;;;;;11.65;100.00;100196.06;5222966;28;20051;-77
2022/10/22 04:16:19;;;;;;;14.05;6.22;;;;;;;11.61;100.00;100199.75;5222208;28;20036;-77
2022/10/22 04:18:50;;;;;;;14.20;6.82;;;;;;;11.75;100.00;100206.97;5220332;28;20116;-78
2022/10/22 04:21:20;;;;;;;8.73;6.13;;;;;;;11.78;100.00;100219.94;5223375;28;20103;-77
2022/10/22 04:23:52;;;;;;;8.45;6.10;;;;;;;11.76;100.00;100227.00;5223505;28;20275;-77
2022/10/22 04:26:22;;;;;;;13.93;5.65;;;;;;;11.71;100.00;100228.97;5223191;28;20549;-78
2022/10/22 04:28:53;;;;;;;14.85;5.78;;;;;;;11.67;100.00;100228.28;5222906;28;20119;-78
2022/10/22 04:31:25;;;;;;;25.58;4.88;;;;;;;11.62;100.00;100238.06;5205175;28;20061;-78
2022/10/22 04:33:57;;;;;;;10.35;3.80;;;;;;;11.63;100.00;100238.94;5204677;28;20025;-78
2022/10/22 04:36:28;;;;;;;13.48;3.70;;;;;;;11.45;100.00;100221.41;5221647;28;21051;-77
2022/10/22 04:39:00;;;;;;;5.55;2.95;;;;;;;11.48;100.00;100222.09;5223674;28;20029;-78
2022/10/22 04:41:33;;;;;;;6.25;3.20;;;;;;;11.44;100.00;100223.16;5223188;28;20091;-78
2022/10/22 04:44:05;;;;;;;7.78;5.07;;;;;;;11.51;100.00;100229.84;5222810;28;20032;-78
2022/10/22 04:46:35;;;;;;;6.95;4.78;;;;;;;11.51;100.00;100240.31;5221915;28;20032;-78
2022/10/22 04:49:06;;;;;;;6.32;5.10;;;;;;;11.51;100.00;100239.44;5204613;28;20040;-77
2022/10/22 04:51:36;;;;;;;8.60;5.60;;;;;;;11.50;100.00;100243.00;5222641;28;20103;-77
2022/10/22 04:54:06;;;;;;;7.43;6.00;;;;;;;11.53;100.00;100233.25;5204888;28;20021;-78
2022/10/22 04:56:37;;;;;;;7.10;5.60;;;;;;;11.55;100.00;100230.53;5222339;28;20040;-78
2022/10/22 04:59:09;;;;;;;9.25;6.10;;;;;;;11.61;100.00;100236.38;5222439;28;20029;-78
2022/10/22 05:01:42;;;;;;;9.55;6.65;;;;;;;11.60;100.00;100232.06;5216323;28;20033;-77
2022/10/22 05:04:16;;;;;;;8.15;6.47;;;;;;;11.63;100.00;100228.47;5222037;28;20056;-78
2022/10/22 05:06:46;;;;;;;10.30;6.07;;;;;;;11.60;100.00;100226.00;5222060;28;20439;-77
2022/10/22 05:09:19;;;;;;;7.20;5.70;;;;;;;11.55;100.00;100215.69;5222161;28;20166;-78
2022/10/22 05:11:51;;;;;;;6.38;5.10;;;;;;;11.56;100.00;100221.81;5222453;28;20029;-78
2022/10/22 05:14:23;;;;;;;5.10;4.32;;;;;;;11.51;100.00;100221.13;5222360;28;20064;-78
2022/10/22 05:16:54;;;;;;;6.40;4.68;;;;;;;11.54;100.00;100221.84;5221799;28;20075;-77
2022/10/22 05:19:27;;;;;;;6.00;4.80;;;;;;;11.47;100.00;100228.25;5221861;28;20383;-78
2022/10/22 05:21:59;;;;;;;9.20;4.85;;;;;;;11.46;100.00;100229.19;5222286;28;20025;-78
2022/10/22 05:24:32;;;;;;;8.75;5.38;;;;;;;11.47;100.00;100230.03;5220733;28;20048;-78
2022/10/22 05:27:02;;;;;;;6.03;4.97;;;;;;;11.48;100.00;100236.97;5221290;28;20394;-78
2022/10/22 05:29:32;;;;;;;6.32;5.20;;;;;;;11.47;100.00;100233.50;5221638;28;20050;-78
2022/10/22 05:32:03;;;;;;;6.43;5.00;;;;;;;11.54;100.00;100239.31;5221390;28;20035;-78
2022/10/22 05:34:35;;;;;;;9.68;6.15;;;;;;;11.58;100.00;100244.38;5221403;28;20032;-78
2022/10/22 05:37:05;;;;;;;11.23;6.13;;;;;;;11.63;100.00;100244.19;5221635;28;20029;-77
2022/10/22 05:39:38;;;;;;;9.55;7.28;;;;;;;11.66;100.00;100250.13;5222063;28;20040;-78
2022/10/22 05:42:09;;;;;;;9.45;6.95;;;;;;;11.67;100.00;100248.34;5218151;28;20446;-79
2022/10/22 05:44:39;;;;;;;7.70;5.90;;;;;;;11.67;100.00;100246.59;5221416;28;20116;-77
2022/10/22 05:47:10;;;;;;;10.63;7.20;;;;;;;11.69;100.00;100250.00;5221442;28;20551;-78
2022/10/22 05:49:40;;;;;;;7.88;5.70;;;;;;;11.70;100.00;100248.22;5203647;28;20569;-78
2022/10/22 05:52:11;;;;;;;8.55;5.82;;;;;;;11.71;100.00;100252.53;5203615;28;20033;-77
2022/10/22 05:54:41;;;;;;;8.88;6.28;;;;;;;11.74;100.00;100253.25;5221505;28;20478;-78
2022/10/22 05:57:11;;;;;;;10.25;6.38;;;;;;;11.71;100.00;100256.00;5220814;28;20028;-78
2022/10/22 05:59:42;;;;;;;8.40;6.60;;;;;;;11.81;100.00;100262.50;5221269;28;20097;-78
2022/10/22 06:02:12;;;;;;;8.98;6.90;;;;;;;11.77;100.00;100270.59;5219618;28;20502;-78
2022/10/22 06:04:42;;;;;;;8.35;6.68;;;;;;;11.75;100.00;100259.34;5220836;28;20029;-78
2022/10/22 06:07:14;;;;;;;12.07;6.80;;;;;;;11.76;100.00;100258.41;5221114;28;20036;-77
2022/10/22 06:09:48;;;;;;;11.95;6.45;;;;;;;11.82;100.00;100265.97;5221354;28;20486;-78
2022/10/22 06:12:19;;;;;;;8.75;6.47;;;;;;;11.80;100.00;100273.91;5203228;28;20071;-77
2022/10/22 06:14:49;;;;;;;8.27;6.10;;;;;;;11.80;100.00;100266.03;5220566;28;20048;-77
2022/10/22 06:17:19;;;;;;;10.48;6.25;;;;;;;11.81;100.00;100274.75;5220535;28;20116;-77
2022/10/22 06:19:50;;;;;;;8.52;6.00;;;;;;;11.77;100.00;100279.28;5220946;28;20031;-78
2022/10/22 06:22:20;;;;;;;7.05;5.47;;;;;;;11.85;100.00;100273.69;5202146;28;20071;-78
2022/10/22 06:24:51;;;;;;;9.90;6.50;;;;;;;11.83;100.00;100283.38;5220057;28;20471;-79
2022/10/22 06:27:21;;;;;;;10.60;5.70;;;;;;;11.83;100.00;100283.38;5219508;28;20029;-78
2022/10/22 06:29:51;;;;;;;11.02;6.63;;;;;;;11.78;100.00;100280.97;5219082;28;20304;-78
2022/10/22 06:32:21;;;;;;;8.82;6.25;;;;;;;11.84;100.00;100280.72;5219478;28;20125;-78
2022/10/22 06:34:52;;;;;;;9.80;6.43;;;;;;;11.88;100.00;100279.66;5219187;28;20078;-77
2022/10/22 06:37:22;;;;;;;9.55;6.70;;;;;;;11.88;100.00;100291.88;5200318;28;20036;-78
2022/10/22 06:39:52;;;;;;;11.02;5.95;;;;;;;11.76;100.00;100295.06;5219278;28;20489;-78
2022/10/22 06:42:23;;;;;;;10.75;6.68;;;;;;;11.73;100.00;100295.19;5221011;28;20021;-78
2022/10/22 06:44:53;;;;;;;9.10;6.10;;;;;;;11.79;100.00;100302.78;5220874;28;20120;-78
2022/10/22 06:47:23;;;;;;;9.00;6.68;;;;;;;11.77;100.00;100302.84;5219895;28;20033;-77
2022/10/22 06:49:54;;;;;;;9.68;6.80;;;;;;;11.77;100.00;100315.09;5220642;28;20033;-78
2022/10/22 06:52:24;;;;;;;8.68;6.30;;;;;;;11.78;100.00;100322.88;5220611;28;20029;-77
2022/10/22 06:54:54;;;;;;;9.90;6.70;;;;;;;11.78;100.00;100317.63;5241503;22;20064;-72
2022/10/22 06:57:24;;;;;;;8.90;6.40;;;;;;;11.80;100.00;100326.25;5221279;28;20106;-73
2022/10/22 06:59:55;;;;;;;10.95;6.65;;;;;;;11.86;100.00;100327.75;5201967;28;20029;-73
2022/10/22 07:02:25;;;;;;;9.32;6.18;;;;;;;11.87;100.00;100330.31;5223275;28;20595;-72
2022/10/22 07:04:55;;;;;;;10.82;6.53;;;;;;;11.81;100.00;100333.19;5204958;28;20035;-73
2022/10/22 07:07:26;;;;;;;8.60;6.20;;;;;;;11.87;100.00;100332.94;5199322;28;20041;-71
2022/10/22 07:09:56;;;;;;;12.60;6.65;;;;;;;11.97;100.00;100346.47;5199497;28;20507;-71
2022/10/22 07:12:26;;;;;;;10.23;5.93;;;;;;;11.99;100.00;100345.47;5200934;28;20033;-71
2022/10/22 07:14:56;;;;;;;9.23;6.13;;;;;;;12.03;100.00;100346.19;5198439;28;20132;-71
2022/10/22 07:17:27;;;;;;;6.72;5.47;;;;;;;12.13;100.00;100340.47;5198526;28;20029;-71
2022/10/22 07:19:57;;;;;;;8.13;5.03;;;;;;;12.20;100.00;100357.63;5198722;28;20030;-71
2022/10/22 07:22:27;;;;;;;7.22;5.13;;;;;;;12.30;100.00;100358.88;5201316;28;20112;-71
2022/10/22 07:24:58;;;;;;;10.68;5.85;;;;;;;12.35;100.00;100354.31;5199301;28;20394;-71
2022/10/22 07:27:28;;;;;;;12.70;6.95;;;;;;;12.32;100.00;100357.03;5202680;28;20049;-71
2022/10/22 07:29:59;;;;;;;9.40;6.45;;;;;;;12.46;100.00;100367.75;5203263;28;20093;-71
2022/10/22 07:32:30;;;;;;;7.43;5.68;;;;;;;12.59;100.00;100371.50;5207632;28;20175;-71
2022/10/22 07:35:00;;;;;;;6.72;5.40;;;;;;;12.61;100.00;100372.28;5203722;28;20029;-71
2022/10/22 07:37:30;;;;;;;10.07;6.07;;;;;;;12.68;100.00;100370.22;5202014;28;20033;-71
2022/10/22 07:40:01;;;;;;;8.27;6.03;;;;;;;12.70;100.00;100374.47;5202972;28;20491;-71
2022/10/22 07:42:31;;;;;;;8.57;5.82;;;;;;;12.85;100.00;100370.25;5203522;28;20052;-71
2022/10/22 07:45:02;;;;;;;7.85;6.03;;;;;;;13.02;100.00;100376.41;5206369;28;20530;-71
2022/10/22 07:47:33;;;;;;;7.82;5.43;;;;;;;13.02;100.00;100371.16;5210500;28;20021;-71
2022/10/22 07:50:04;;;;;;;8.50;5.68;;;;;;;13.52;100.00;100369.50;5184942;28;20037;-72
2022/10/22 07:52:34;;;;;;;8.90;5.43;;;;;;;15.55;100.00;100360.75;5201512;28;20025;-72
2022/10/22 07:55:05;;;;;;;5.40;4.60;;;;;;;17.31;100.00;100358.31;5202913;28;20499;-72
2022/10/22 07:57:36;;;;;;;7.43;4.22;;;;;;;18.50;100.00;100364.13;5183065;28;20025;-72
2022/10/22 08:00:08;;;;;;;4.53;2.65;;;;;;;19.44;100.00;100360.56;5201411;28;20034;-72
2022/10/22 08:02:38;;;;;;;4.93;2.60;;;;;;;19.59;100.00;100367.38;5208679;28;20021;-72
2022/10/22 08:05:09;;;;;;;5.28;2.20;;;;;;;18.67;100.00;100372.53;5206373;28;20044;-72
2022/10/22 08:07:39;;;;;;;5.57;2.60;;;;;;;18.46;100.00;100383.78;5198547;28;20044;-71
2022/10/22 08:10:10;;;;;;;4.35;2.30;;;;;;;17.08;100.00;100388.00;5206346;28;20075;-71
2022/10/22 08:12:41;;;;;;;6.75;2.72;;;;;;;16.41;100.00;100395.03;5203031;28;20032;-72
2022/10/22 08:15:11;;;;;;;4.10;2.75;;;;;;;15.94;100.00;100389.16;5188083;28;20025;-71
2022/10/22 08:17:41;;;;;;;8.75;3.03;;;;;;;15.35;100.00;100389.22;5209598;28;20075;-72
2022/10/22 08:20:12;;;;;;;6.00;3.05;;;;;;;16.10;100.00;100396.06;5199920;28;20025;-71
2022/10/22 08:22:42;;;;;;;5.50;3.30;;;;;;;17.83;100.00;100390.91;5200380;28;20021;-71
2022/10/22 08:25:12;;;;;;;7.68;3.50;;;;;;;18.91;100.00;100387.50;5200141;28;20045;-71
2022/10/22 08:27:43;;;;;;;7.53;3.10;;;;;;;19.63;100.00;100387.38;5200430;28;20477;-72
2022/10/22 08:30:14;;;;;;;6.05;2.72;;;;;;;20.14;100.00;100385.25;5200034;28;20944;-72
2022/10/22 08:32:44;;;;;;;4.13;2.38;;;;;;;20.44;100.00;100383.69;5208563;28;20311;-72
2022/10/22 08:35:15;;;;;;;7.28;2.47;;;;;;;20.69;100.00;100391.41;5204004;28;20048;-72
2022/10/22 08:37:45;;;;;;;4.05;2.45;;;;;;;20.85;98.72;100387.41;5200155;28;20108;-72
2022/10/22 08:40:27;;;;;;;6.27;2.63;;;;;;;19.93;100.00;100389.53;5199780;28;20029;-72
2022/10/22 08:43:27;;;;;;;5.38;2.60;;;;;;;19.78;100.00;100382.75;5199854;28;20346;-71
2022/10/22 08:46:18;;;;;;;4.63;2.58;;;;;;;19.24;100.00;100385.06;5206054;28;20061;-72
2022/10/22 08:48:51;;;;;;;6.65;2.60;;;;;;;19.32;100.00;100393.31;5188229;28;20091;-72
2022/10/22 08:51:24;;;;;;;6.13;2.53;;;;;;;18.77;100.00;100389.47;5200519;28;20296;-72
2022/10/22 08:54:20;;;;;;;7.78;2.67;;;;;;;18.35;100.00;100381.09;5200609;28;20388;-72
2022/10/22 08:57:08;;;;;;;6.18;2.72;;;;;;;18.24;100.00;100394.16;5198303;28;20041;-72
2022/10/22 08:59:50;;;;;;;7.40;3.15;;;;;;;18.10;100.00;100386.34;5183119;28;20104;-71
2022/10/22 09:02:34;;;;;;;8.55;3.08;;;;;;;17.99;100.00;100391.53;5205300;28;20037;-72
2022/10/22 09:05:10;;;;;;;6.47;2.97;;;;;;;17.95;100.00;100392.69;5204312;28;20037;-71
2022/10/22 09:07:42;;;;;;;6.35;2.78;;;;;;;17.95;100.00;100384.75;5196395;28;20091;-72
2022/10/22 09:10:13;;;;;;;6.10;2.90;;;;;;;17.80;100.00;100388.47;5200626;28;20044;-72
2022/10/22 09:12:44;;;;;;;6.07;2.95;;;;;;;17.88;100.00;100392.28;5200338;28;20530;-72
2022/10/22 09:15:17;;;;;;;8.02;2.70;;;;;;;18.21;100.00;100378.50;5204584;28;20026;-72
2022/10/22 09:18:24;;;;;;;5.55;2.80;;;;;;;18.02;100.00;100372.81;5204369;28;20068;-71
2022/10/22 09:21:28;;;;;;;6.93;2.70;;;;;;;18.15;100.00;100386.88;5198076;28;20535;-72
2022/10/22 09:24:01;;;;;;;6.22;2.40;;;;;;;18.08;100.00;100381.19;5197446;28;20914;-72
2022/10/22 09:26:36;;;;;;;6.95;2.25;;;;;;;18.29;100.00;100384.13;5199852;28;20483;-72
2022/10/22 09:29:16;;;;;;;10.88;2.50;;;;;;;18.37;100.00;100387.09;5199573;28;20107;-72
2022/10/22 09:31:47;;;;;;;7.18;2.35;;;;;;;18.19;100.00;100391.00;5202634;28;20068;-72
2022/10/22 09:34:21;;;;;;;11.52;2.75;;;;;;;18.44;100.00;100388.34;5203131;28;20201;-72
2022/10/22 09:37:04;;;;;;;4.18;2.20;;;;;;;18.58;100.00;100389.09;5197248;28;20029;-72
2022/10/22 09:39:42;;;;;;;5.57;2.25;;;;;;;18.52;100.00;100396.63;5180994;28;20029;-72
2022/10/22 09:42:18;;;;;;;4.88;2.10;;;;;;;18.50;100.00;100391.41;5197471;28;20021;-72
2022/10/22 09:44:57;;;;;;;6.63;2.15;;;;;;;18.43;100.00;100394.59;5204086;28;20021;-72
2022/10/22 09:47:32;;;;;;;5.50;2.20;;;;;;;18.64;100.00;100391.28;5206058;28;20029;-72
2022/10/22 09:50:18;;;;;;;6.53;2.50;;;;;;;18.45;100.00;100397.97;5199184;28;20053;-72
2022/10/22 09:53:03;;;;;;;;;;;;;;;18.51;100.00;100398.41;5197277;28;20124;-72
2022/10/22 09:55:37;;;;;;;7.25;2.47;;;;;;;18.40;100.00;100400.13;5199565;28;19923;-71
2022/10/22 09:58:11;;;;;;;6.80;2.40;;;;;;;18.50;100.00;100406.47;5198278;28;20459;-71
2022/10/22 10:00:45;;;;;;;4.30;2.15;;;;;;;18.57;100.00;100407.72;5196731;28;20032;-72
2022/10/22 10:03:19;;;;;;;5.60;2.10;;;;;;;18.53;100.00;100407.06;5200548;28;20037;-72
2022/10/22 10:05:53;;;;;;;6.13;2.28;;;;;;;18.51;100.00;100405.50;5196218;28;20553;-72
2022/10/22 10:08:24;;;;;;;5.30;2.10;;;;;;;18.63;100.00;100404.63;5198784;28;20152;-72
2022/10/22 10:11:12;;;;;;;7.40;1.88;;;;;;;18.70;100.00;100413.84;5199348;28;20531;-71
2022/10/22 10:13:48;;;;;;;5.13;1.90;;;;;;;18.77;100.00;100424.72;5196289;28;20040;-72
2022/10/22 10:16:38;;;;;;;3.58;1.80;;;;;;;18.77;100.00;100427.38;5198011;28;20213;-72
2022/10/22 10:19:12;;;;;;;5.18;2.00;;;;;;;18.75;100.00;100434.56;5194865;28;20033;-72
2022/10/22 10:22:19;;;;;;;6.15;1.83;;;;;;;18.67;100.00;100435.25;5199903;28;20029;-72
2022/10/22 10:24:59;;;;;;;4.90;1.73;;;;;;;18.81;100.00;100430.66;5195924;28;20044;-72
2022/10/22 10:27:41;;;;;;;7.75;1.98;;;;;;;18.77;100.00;100427.38;5181415;28;20044;-72
2022/10/22 10:30:19;;;;;;;3.95;1.75;;;;;;;18.74;100.00;100432.06;5195088;28;20044;-72
2022/10/22 10:33:02;;;;;;;6.25;2.00;;;;;;;18.59;100.00;100433.13;5204351;28;20029;-72
2022/10/22 10:36:06;;;;;;;3.72;1.60;;;;;;;18.71;100.00;100442.00;5202535;28;20041;-72
2022/10/22 10:39:08;;;;;;;8.05;2.00;;;;;;;18.61;100.00;100440.94;5198235;28;20116;-72
2022/10/22 10:42:03;;;;;;;5.93;2.08;;;;;;;18.73;100.00;100445.38;5189212;28;20099;-72
2022/10/22 10:45:00;;;;;;;6.28;1.88;;;;;;;18.50;100.00;100449.66;5198800;28;20444;-72
2022/10/22 10:47:37;;;;;;;;;;;;;;;18.58;100.00;100446.47;5184964;28;20049;-72
2022/10/22 10:50:30;;;;;;;;;;;;;;;18.58;100.00;100446.47;5198888;28;19921;-72
2022/10/22 10:53:13;;;;;;;3.38;1.70;;;;;;;18.59;100.00;100456.09;5188185;28;20510;-72
2022/10/22 10:55:56;;;;;;;7.00;2.08;;;;;;;18.56;100.00;100449.25;5197143;28;20045;-72
2022/10/22 10:58:40;;;;;;;4.68;1.95;;;;;;;18.49;100.00;100453.25;5198518;28;20025;-73
2022/10/22 11:01:25;;;;;;;3.65;1.73;;;;;;;18.42;100.00;100459.06;5197632;28;20049;-71
2022/10/22 11:04:06;;;;;;;5.88;2.17;;;;;;;18.45;100.00;100462.38;5203309;28;20082;-72
2022/10/22 11:06:38;;;;;;;3.85;2.05;;;;;;;18.50;100.00;100456.75;5197167;28;20124;-72
2022/10/22 11:09:26;;;;;;;4.78;1.92;;;;;;;18.21;100.00;100456.06;5202354;28;20033;-72
2022/10/22 11:12:03;;;;;;;4.22;1.85;;;;;;;18.32;100.00;100450.09;5196504;28;20045;-72
2022/10/22 11:14:58;;;;;;;16.90;2.03;;;;;;;18.54;100.00;100450.28;5197684;28;20026;-71
2022/10/22 11:17:37;;;;;;;4.60;2.03;;;;;;;18.51;100.00;100450.50;5200155;28;20046;-72
2022/10/22 11:20:08;;;;;;;6.47;2.17;;;;;;;18.30;100.00;100451.97;5197365;28;20048;-73
2022/10/22 11:22:48;;;;;;;5.78;1.90;;;;;;;18.48;100.00;100448.09;5197676;28;20029;-73
2022/10/22 11:25:24;;;;;;;6.00;2.40;;;;;;;18.56;100.00;100449.25;5191080;28;20041;-73
2022/10/22 11:28:00;;;;;;;5.78;2.00;;;;;;;18.33;100.00;100454.44;5196249;28;20044;-72
2022/10/22 11:30:35;;;;;;;5.13;1.88;;;;;;;18.33;100.00;100454.44;5197128;28;20332;-74
2022/10/22 11:33:13;;;;;;;4.93;1.85;;;;;;;18.28;100.00;100445.94;5201391;28;20037;-74
2022/10/22 11:35:45;;;;;;;4.20;1.63;;;;;;;18.32;100.00;100439.53;5196801;28;20113;-73
2022/10/22 11:38:23;;;;;;;4.93;2.15;;;;;;;18.36;100.00;100438.34;5197714;28;20120;-73
2022/10/22 11:41:01;;;;;;;4.43;1.90;;;;;;;18.12;100.00;100448.78;5197006;28;20104;-73
2022/10/22 11:43:51;;;;;;;4.97;2.03;;;;;;;18.09;100.00;100451.63;5198005;28;20021;-72
2022/10/22 11:46:21;;;;;;;6.30;2.13;;;;;;;17.98;100.00;100453.31;5193584;28;20491;-72
2022/10/22 11:49:13;;;;;;;7.20;2.13;;;;;;;18.03;100.00;100454.69;5179037;28;20087;-73
2022/10/22 11:51:45;;;;;;;5.03;2.17;;;;;;;18.20;100.00;100449.09;5195397;28;20292;-73